sensor_id;sensor_type;location;lat;lon;timestamp;P1;durP1;ratioP1;P2;durP2;ratioP2
10347;SDS011;5220;43.192;23.284;2024-03-08T00:01:15;28.53;;;18.63;;
10347;SDS011;5220;43.192;23.284;2024-03-08T00:03:45;29.73;;;18.67;;
10347;SDS011;5220;43.192;23.284;2024-03-08T00:06:12;28.90;;;18.93;;
10347;SDS011;5220;43.192;23.284;2024-03-08T00:08:39;29.00;;;18.43;;
10347;SDS011;5220;43.192;23.284;2024-03-08T00:11:05;30.67;;;19.07;;
10347;SDS011;5220;43.192;23.284;2024-03-08T00:13:33;27.93;;;18.17;;
10347;SDS011;5220;43.192;23.284;2024-03-08T00:16:00;25.75;;;18.08;;
10347;SDS011;5220;43.192;23.284;2024-03-08T00:18:27;26.60;;;17.23;;
10347;SDS011;5220;43.192;23.284;2024-03-08T00:20:55;25.35;;;17.63;;
10347;SDS011;5220;43.192;23.284;2024-03-08T00:23:22;26.73;;;17.75;;
10347;SDS011;5220;43.192;23.284;2024-03-08T00:25:49;28.77;;;17.30;;
10347;SDS011;5220;43.192;23.284;2024-03-08T00:28:16;25.33;;;16.40;;
10347;SDS011;5220;43.192;23.284;2024-03-08T00:30:44;25.88;;;18.02;;
10347;SDS011;5220;43.192;23.284;2024-03-08T00:33:11;28.90;;;17.77;;
10347;SDS011;5220;43.192;23.284;2024-03-08T00:35:38;28.15;;;18.05;;
10347;SDS011;5220;43.192;23.284;2024-03-08T00:38:06;25.95;;;18.13;;
10347;SDS011;5220;43.192;23.284;2024-03-08T00:40:33;28.40;;;17.98;;
10347;SDS011;5220;43.192;23.284;2024-03-08T00:42:59;30.73;;;17.42;;
10347;SDS011;5220;43.192;23.284;2024-03-08T00:45:28;28.17;;;18.33;;
10347;SDS011;5220;43.192;23.284;2024-03-08T00:47:55;28.42;;;18.38;;
10347;SDS011;5220;43.192;23.284;2024-03-08T00:50:22;26.83;;;17.50;;
10347;SDS011;5220;43.192;23.284;2024-03-08T00:52:49;23.97;;;17.67;;
10347;SDS011;5220;43.192;23.284;2024-03-08T00:55:17;25.77;;;17.35;;
10347;SDS011;5220;43.192;23.284;2024-03-08T00:57:44;22.47;;;16.83;;
10347;SDS011;5220;43.192;23.284;2024-03-08T01:00:11;23.50;;;16.57;;
10347;SDS011;5220;43.192;23.284;2024-03-08T01:02:38;22.67;;;15.38;;
10347;SDS011;5220;43.192;23.284;2024-03-08T01:05:05;23.50;;;16.33;;
10347;SDS011;5220;43.192;23.284;2024-03-08T01:07:32;24.37;;;16.13;;
10347;SDS011;5220;43.192;23.284;2024-03-08T01:09:59;23.52;;;15.68;;
10347;SDS011;5220;43.192;23.284;2024-03-08T01:12:28;21.65;;;15.68;;
10347;SDS011;5220;43.192;23.284;2024-03-08T01:14:55;24.25;;;16.98;;
10347;SDS011;5220;43.192;23.284;2024-03-08T01:17:23;22.73;;;15.93;;
10347;SDS011;5220;43.192;23.284;2024-03-08T01:19:50;21.57;;;16.13;;
10347;SDS011;5220;43.192;23.284;2024-03-08T01:22:16;21.13;;;15.17;;
10347;SDS011;5220;43.192;23.284;2024-03-08T01:24:43;20.93;;;15.10;;
10347;SDS011;5220;43.192;23.284;2024-03-08T01:27:10;22.05;;;15.27;;
10347;SDS011;5220;43.192;23.284;2024-03-08T01:29:39;21.63;;;13.83;;
10347;SDS011;5220;43.192;23.284;2024-03-08T01:32:05;24.30;;;16.33;;
10347;SDS011;5220;43.192;23.284;2024-03-08T01:34:32;24.20;;;15.53;;
10347;SDS011;5220;43.192;23.284;2024-03-08T01:36:59;26.83;;;16.20;;
10347;SDS011;5220;43.192;23.284;2024-03-08T01:39:26;23.43;;;15.80;;
10347;SDS011;5220;43.192;23.284;2024-03-08T01:41:52;23.57;;;15.70;;
10347;SDS011;5220;43.192;23.284;2024-03-08T01:44:20;24.90;;;16.23;;
10347;SDS011;5220;43.192;23.284;2024-03-08T01:46:48;24.10;;;16.00;;
10347;SDS011;5220;43.192;23.284;2024-03-08T01:49:17;24.37;;;16.17;;
10347;SDS011;5220;43.192;23.284;2024-03-08T01:51:46;25.17;;;17.67;;
10347;SDS011;5220;43.192;23.284;2024-03-08T01:54:14;26.27;;;17.90;;
10347;SDS011;5220;43.192;23.284;2024-03-08T01:56:45;27.08;;;17.60;;
10347;SDS011;5220;43.192;23.284;2024-03-08T01:59:12;27.23;;;17.17;;
10347;SDS011;5220;43.192;23.284;2024-03-08T02:01:40;28.38;;;18.15;;
10347;SDS011;5220;43.192;23.284;2024-03-08T02:04:08;26.23;;;17.60;;
10347;SDS011;5220;43.192;23.284;2024-03-08T02:06:36;25.67;;;18.20;;
10347;SDS011;5220;43.192;23.284;2024-03-08T02:09:04;26.30;;;17.17;;
10347;SDS011;5220;43.192;23.284;2024-03-08T02:11:32;26.07;;;17.27;;
10347;SDS011;5220;43.192;23.284;2024-03-08T02:14:01;24.33;;;16.87;;
10347;SDS011;5220;43.192;23.284;2024-03-08T02:16:27;29.33;;;17.83;;
10347;SDS011;5220;43.192;23.284;2024-03-08T02:18:54;27.27;;;17.10;;
10347;SDS011;5220;43.192;23.284;2024-03-08T02:21:22;26.57;;;16.07;;
10347;SDS011;5220;43.192;23.284;2024-03-08T02:23:49;23.90;;;16.63;;
10347;SDS011;5220;43.192;23.284;2024-03-08T02:26:17;23.47;;;15.50;;
10347;SDS011;5220;43.192;23.284;2024-03-08T02:28:44;22.27;;;15.93;;
10347;SDS011;5220;43.192;23.284;2024-03-08T02:31:11;22.80;;;15.47;;
10347;SDS011;5220;43.192;23.284;2024-03-08T02:33:38;25.13;;;15.13;;
10347;SDS011;5220;43.192;23.284;2024-03-08T02:36:05;21.30;;;15.20;;
10347;SDS011;5220;43.192;23.284;2024-03-08T02:38:34;25.50;;;16.55;;
10347;SDS011;5220;43.192;23.284;2024-03-08T02:41:00;22.77;;;15.70;;
10347;SDS011;5220;43.192;23.284;2024-03-08T02:43:28;24.30;;;15.98;;
10347;SDS011;5220;43.192;23.284;2024-03-08T02:45:55;20.60;;;15.10;;
10347;SDS011;5220;43.192;23.284;2024-03-08T02:48:22;23.67;;;15.55;;
10347;SDS011;5220;43.192;23.284;2024-03-08T02:50:49;25.08;;;16.55;;
10347;SDS011;5220;43.192;23.284;2024-03-08T02:53:16;27.77;;;15.73;;
10347;SDS011;5220;43.192;23.284;2024-03-08T02:55:45;28.93;;;16.50;;
10347;SDS011;5220;43.192;23.284;2024-03-08T02:58:12;29.67;;;17.52;;
10347;SDS011;5220;43.192;23.284;2024-03-08T03:00:39;30.23;;;17.13;;
10347;SDS011;5220;43.192;23.284;2024-03-08T03:03:06;23.63;;;16.80;;
10347;SDS011;5220;43.192;23.284;2024-03-08T03:05:33;26.43;;;16.70;;
10347;SDS011;5220;43.192;23.284;2024-03-08T03:08:00;25.30;;;17.00;;
10347;SDS011;5220;43.192;23.284;2024-03-08T03:10:29;27.50;;;17.50;;
10347;SDS011;5220;43.192;23.284;2024-03-08T03:12:57;32.53;;;18.20;;
10347;SDS011;5220;43.192;23.284;2024-03-08T03:15:24;28.93;;;17.67;;
10347;SDS011;5220;43.192;23.284;2024-03-08T03:17:50;31.27;;;18.83;;
10347;SDS011;5220;43.192;23.284;2024-03-08T03:20:17;34.00;;;19.00;;
10347;SDS011;5220;43.192;23.284;2024-03-08T03:22:51;33.72;;;22.88;;
10347;SDS011;5220;43.192;23.284;2024-03-08T03:25:18;27.80;;;18.90;;
10347;SDS011;5220;43.192;23.284;2024-03-08T03:27:50;29.35;;;19.00;;
10347;SDS011;5220;43.192;23.284;2024-03-08T03:30:18;29.63;;;19.23;;
10347;SDS011;5220;43.192;23.284;2024-03-08T03:32:48;31.42;;;18.23;;
10347;SDS011;5220;43.192;23.284;2024-03-08T03:35:16;27.37;;;16.00;;
10347;SDS011;5220;43.192;23.284;2024-03-08T03:37:43;25.77;;;15.45;;
10347;SDS011;5220;43.192;23.284;2024-03-08T03:40:16;23.23;;;15.53;;
10347;SDS011;5220;43.192;23.284;2024-03-08T03:42:44;20.63;;;13.68;;
10347;SDS011;5220;43.192;23.284;2024-03-08T03:45:11;20.20;;;13.90;;
10347;SDS011;5220;43.192;23.284;2024-03-08T03:47:42;21.50;;;13.93;;
10347;SDS011;5220;43.192;23.284;2024-03-08T03:50:09;20.17;;;14.60;;
10347;SDS011;5220;43.192;23.284;2024-03-08T03:52:35;22.90;;;13.70;;
10347;SDS011;5220;43.192;23.284;2024-03-08T03:55:02;19.77;;;13.43;;
10347;SDS011;5220;43.192;23.284;2024-03-08T03:57:30;21.13;;;13.30;;
10347;SDS011;5220;43.192;23.284;2024-03-08T03:59:57;20.37;;;13.73;;
10347;SDS011;5220;43.192;23.284;2024-03-08T04:02:24;20.50;;;15.25;;
10347;SDS011;5220;43.192;23.284;2024-03-08T04:04:52;22.23;;;14.40;;
10347;SDS011;5220;43.192;23.284;2024-03-08T04:07:20;20.33;;;13.77;;
10347;SDS011;5220;43.192;23.284;2024-03-08T04:09:47;18.13;;;12.30;;
10347;SDS011;5220;43.192;23.284;2024-03-08T04:12:13;18.58;;;12.63;;
10347;SDS011;5220;43.192;23.284;2024-03-08T04:14:41;19.70;;;12.00;;
10347;SDS011;5220;43.192;23.284;2024-03-08T04:17:08;17.67;;;12.37;;
10347;SDS011;5220;43.192;23.284;2024-03-08T04:19:36;16.02;;;11.32;;
10347;SDS011;5220;43.192;23.284;2024-03-08T04:22:05;21.47;;;12.40;;
10347;SDS011;5220;43.192;23.284;2024-03-08T04:24:32;18.27;;;12.27;;
10347;SDS011;5220;43.192;23.284;2024-03-08T04:26:59;17.23;;;11.70;;
10347;SDS011;5220;43.192;23.284;2024-03-08T04:29:26;16.60;;;12.03;;
10347;SDS011;5220;43.192;23.284;2024-03-08T04:31:52;16.40;;;12.30;;
10347;SDS011;5220;43.192;23.284;2024-03-08T04:34:19;15.83;;;11.57;;
10347;SDS011;5220;43.192;23.284;2024-03-08T04:36:46;17.13;;;10.63;;
10347;SDS011;5220;43.192;23.284;2024-03-08T04:39:14;14.27;;;9.87;;
10347;SDS011;5220;43.192;23.284;2024-03-08T04:41:43;15.03;;;10.50;;
10347;SDS011;5220;43.192;23.284;2024-03-08T04:44:11;15.17;;;11.17;;
10347;SDS011;5220;43.192;23.284;2024-03-08T04:46:38;17.10;;;11.75;;
10347;SDS011;5220;43.192;23.284;2024-03-08T04:49:06;14.80;;;11.33;;
10347;SDS011;5220;43.192;23.284;2024-03-08T04:51:33;17.57;;;12.07;;
10347;SDS011;5220;43.192;23.284;2024-03-08T04:54:00;18.33;;;12.93;;
10347;SDS011;5220;43.192;23.284;2024-03-08T04:56:28;18.57;;;13.90;;
10347;SDS011;5220;43.192;23.284;2024-03-08T04:58:54;17.90;;;12.13;;
10347;SDS011;5220;43.192;23.284;2024-03-08T05:01:21;15.97;;;11.67;;
10347;SDS011;5220;43.192;23.284;2024-03-08T05:03:48;17.93;;;12.00;;
10347;SDS011;5220;43.192;23.284;2024-03-08T05:06:15;14.90;;;11.10;;
10347;SDS011;5220;43.192;23.284;2024-03-08T05:08:42;14.75;;;10.27;;
10347;SDS011;5220;43.192;23.284;2024-03-08T05:11:08;19.13;;;11.33;;
10347;SDS011;5220;43.192;23.284;2024-03-08T05:13:36;11.90;;;8.67;;
10347;SDS011;5220;43.192;23.284;2024-03-08T05:16:04;12.43;;;10.30;;
10347;SDS011;5220;43.192;23.284;2024-03-08T05:18:32;11.53;;;8.07;;
10347;SDS011;5220;43.192;23.284;2024-03-08T05:21:01;11.80;;;7.87;;
10347;SDS011;5220;43.192;23.284;2024-03-08T05:23:29;11.87;;;9.67;;
10347;SDS011;5220;43.192;23.284;2024-03-08T05:25:55;10.60;;;8.27;;
10347;SDS011;5220;43.192;23.284;2024-03-08T05:28:22;12.73;;;8.07;;
10347;SDS011;5220;43.192;23.284;2024-03-08T05:30:50;20.53;;;12.80;;
10347;SDS011;5220;43.192;23.284;2024-03-08T05:33:17;17.20;;;10.77;;
10347;SDS011;5220;43.192;23.284;2024-03-08T05:35:44;24.30;;;11.17;;
10347;SDS011;5220;43.192;23.284;2024-03-08T05:38:11;18.50;;;11.03;;
10347;SDS011;5220;43.192;23.284;2024-03-08T05:40:38;19.37;;;11.47;;
10347;SDS011;5220;43.192;23.284;2024-03-08T05:43:04;34.20;;;14.20;;
10347;SDS011;5220;43.192;23.284;2024-03-08T05:45:31;38.47;;;17.80;;
10347;SDS011;5220;43.192;23.284;2024-03-08T05:48:00;38.03;;;23.40;;
10347;SDS011;5220;43.192;23.284;2024-03-08T05:50:28;20.83;;;14.97;;
10347;SDS011;5220;43.192;23.284;2024-03-08T05:52:55;19.90;;;13.67;;
10347;SDS011;5220;43.192;23.284;2024-03-08T05:55:22;21.43;;;14.87;;
10347;SDS011;5220;43.192;23.284;2024-03-08T05:57:49;16.90;;;11.47;;
10347;SDS011;5220;43.192;23.284;2024-03-08T06:00:17;19.23;;;13.23;;
10347;SDS011;5220;43.192;23.284;2024-03-08T06:02:44;22.13;;;12.67;;
10347;SDS011;5220;43.192;23.284;2024-03-08T06:05:12;21.20;;;13.67;;
10347;SDS011;5220;43.192;23.284;2024-03-08T06:07:39;14.77;;;10.33;;
10347;SDS011;5220;43.192;23.284;2024-03-08T06:10:07;16.13;;;11.27;;
10347;SDS011;5220;43.192;23.284;2024-03-08T06:12:37;16.80;;;12.03;;
10347;SDS011;5220;43.192;23.284;2024-03-08T06:15:06;18.73;;;13.33;;
10347;SDS011;5220;43.192;23.284;2024-03-08T06:17:33;19.77;;;12.43;;
10347;SDS011;5220;43.192;23.284;2024-03-08T06:20:00;14.20;;;8.87;;
10347;SDS011;5220;43.192;23.284;2024-03-08T06:22:29;16.67;;;9.97;;
10347;SDS011;5220;43.192;23.284;2024-03-08T06:24:56;16.03;;;11.80;;
10347;SDS011;5220;43.192;23.284;2024-03-08T06:27:22;15.10;;;11.73;;
10347;SDS011;5220;43.192;23.284;2024-03-08T06:29:49;14.00;;;10.43;;
10347;SDS011;5220;43.192;23.284;2024-03-08T06:32:16;17.17;;;10.93;;
10347;SDS011;5220;43.192;23.284;2024-03-08T06:34:44;13.10;;;11.20;;
10347;SDS011;5220;43.192;23.284;2024-03-08T06:37:10;13.47;;;10.70;;
10347;SDS011;5220;43.192;23.284;2024-03-08T06:39:38;11.80;;;9.23;;
10347;SDS011;5220;43.192;23.284;2024-03-08T06:42:05;11.87;;;10.67;;
10347;SDS011;5220;43.192;23.284;2024-03-08T06:44:34;16.33;;;12.87;;
10347;SDS011;5220;43.192;23.284;2024-03-08T06:47:01;15.23;;;12.17;;
10347;SDS011;5220;43.192;23.284;2024-03-08T06:49:27;15.20;;;12.17;;
10347;SDS011;5220;43.192;23.284;2024-03-08T06:51:54;13.47;;;10.80;;
10347;SDS011;5220;43.192;23.284;2024-03-08T06:54:22;12.93;;;9.60;;
10347;SDS011;5220;43.192;23.284;2024-03-08T06:56:51;12.97;;;9.03;;
10347;SDS011;5220;43.192;23.284;2024-03-08T06:59:18;14.53;;;10.30;;
10347;SDS011;5220;43.192;23.284;2024-03-08T07:01:44;15.90;;;11.40;;
10347;SDS011;5220;43.192;23.284;2024-03-08T07:04:11;14.63;;;10.57;;
10347;SDS011;5220;43.192;23.284;2024-03-08T07:06:38;10.73;;;8.67;;
10347;SDS011;5220;43.192;23.284;2024-03-08T07:09:06;11.07;;;8.63;;
10347;SDS011;5220;43.192;23.284;2024-03-08T07:11:32;11.00;;;9.40;;
10347;SDS011;5220;43.192;23.284;2024-03-08T07:14:01;10.50;;;8.13;;
10347;SDS011;5220;43.192;23.284;2024-03-08T07:16:30;11.40;;;8.87;;
10347;SDS011;5220;43.192;23.284;2024-03-08T07:18:57;14.27;;;10.97;;
10347;SDS011;5220;43.192;23.284;2024-03-08T07:21:24;14.77;;;9.83;;
10347;SDS011;5220;43.192;23.284;2024-03-08T07:23:51;15.10;;;11.47;;
10347;SDS011;5220;43.192;23.284;2024-03-08T07:26:38;14.50;;;11.30;;
10347;SDS011;5220;43.192;23.284;2024-03-08T07:29:06;14.27;;;10.53;;
10347;SDS011;5220;43.192;23.284;2024-03-08T07:31:34;15.50;;;11.47;;
10347;SDS011;5220;43.192;23.284;2024-03-08T07:34:10;13.97;;;10.07;;
10347;SDS011;5220;43.192;23.284;2024-03-08T07:36:37;11.60;;;9.47;;
10347;SDS011;5220;43.192;23.284;2024-03-08T07:39:04;10.38;;;8.27;;
10347;SDS011;5220;43.192;23.284;2024-03-08T07:41:34;11.37;;;8.27;;
10347;SDS011;5220;43.192;23.284;2024-03-08T07:44:01;9.27;;;7.60;;
10347;SDS011;5220;43.192;23.284;2024-03-08T07:46:30;9.80;;;8.33;;
10347;SDS011;5220;43.192;23.284;2024-03-08T07:48:57;11.40;;;9.32;;
10347;SDS011;5220;43.192;23.284;2024-03-08T07:51:23;12.63;;;10.13;;
10347;SDS011;5220;43.192;23.284;2024-03-08T07:53:50;15.63;;;12.00;;
10347;SDS011;5220;43.192;23.284;2024-03-08T07:56:17;13.23;;;11.30;;
10347;SDS011;5220;43.192;23.284;2024-03-08T07:58:44;14.03;;;11.77;;
10347;SDS011;5220;43.192;23.284;2024-03-08T08:01:15;17.40;;;11.70;;
10347;SDS011;5220;43.192;23.284;2024-03-08T08:03:44;17.70;;;12.53;;
10347;SDS011;5220;43.192;23.284;2024-03-08T08:06:11;14.10;;;12.67;;
10347;SDS011;5220;43.192;23.284;2024-03-08T08:08:41;13.93;;;11.73;;
10347;SDS011;5220;43.192;23.284;2024-03-08T08:11:08;13.60;;;11.50;;
10347;SDS011;5220;43.192;23.284;2024-03-08T08:13:36;12.57;;;10.47;;
10347;SDS011;5220;43.192;23.284;2024-03-08T08:16:04;12.83;;;10.77;;
10347;SDS011;5220;43.192;23.284;2024-03-08T08:18:31;13.60;;;11.73;;
10347;SDS011;5220;43.192;23.284;2024-03-08T08:21:01;14.83;;;11.17;;
10347;SDS011;5220;43.192;23.284;2024-03-08T08:23:32;16.00;;;11.80;;
10347;SDS011;5220;43.192;23.284;2024-03-08T08:25:59;17.17;;;12.20;;
10347;SDS011;5220;43.192;23.284;2024-03-08T08:28:28;15.50;;;12.37;;
10347;SDS011;5220;43.192;23.284;2024-03-08T08:30:56;12.37;;;9.93;;
10347;SDS011;5220;43.192;23.284;2024-03-08T08:33:24;12.00;;;9.60;;
10347;SDS011;5220;43.192;23.284;2024-03-08T08:35:51;10.93;;;9.20;;
10347;SDS011;5220;43.192;23.284;2024-03-08T08:38:20;11.13;;;8.30;;
10347;SDS011;5220;43.192;23.284;2024-03-08T08:40:47;11.25;;;8.15;;
10347;SDS011;5220;43.192;23.284;2024-03-08T08:43:13;12.32;;;9.35;;
10347;SDS011;5220;43.192;23.284;2024-03-08T08:45:40;14.65;;;10.73;;
10347;SDS011;5220;43.192;23.284;2024-03-08T08:48:08;15.15;;;10.13;;
10347;SDS011;5220;43.192;23.284;2024-03-08T08:50:35;15.93;;;11.80;;
10347;SDS011;5220;43.192;23.284;2024-03-08T08:53:03;16.67;;;12.00;;
10347;SDS011;5220;43.192;23.284;2024-03-08T08:55:33;13.27;;;9.88;;
10347;SDS011;5220;43.192;23.284;2024-03-08T08:58:01;12.63;;;10.07;;
10347;SDS011;5220;43.192;23.284;2024-03-08T09:00:28;16.43;;;12.37;;
10347;SDS011;5220;43.192;23.284;2024-03-08T09:02:56;28.20;;;20.48;;
10347;SDS011;5220;43.192;23.284;2024-03-08T09:05:23;25.00;;;21.00;;
10347;SDS011;5220;43.192;23.284;2024-03-08T09:07:51;23.20;;;17.67;;
10347;SDS011;5220;43.192;23.284;2024-03-08T09:10:18;16.17;;;12.85;;
10347;SDS011;5220;43.192;23.284;2024-03-08T09:12:46;18.07;;;13.57;;
10347;SDS011;5220;43.192;23.284;2024-03-08T09:15:12;16.92;;;12.98;;
10347;SDS011;5220;43.192;23.284;2024-03-08T09:17:39;13.32;;;10.60;;
10347;SDS011;5220;43.192;23.284;2024-03-08T09:20:06;23.33;;;15.95;;
10347;SDS011;5220;43.192;23.284;2024-03-08T09:22:35;14.05;;;10.77;;
10347;SDS011;5220;43.192;23.284;2024-03-08T09:25:02;17.95;;;12.00;;
10347;SDS011;5220;43.192;23.284;2024-03-08T09:27:30;14.50;;;11.32;;
10347;SDS011;5220;43.192;23.284;2024-03-08T09:29:58;15.52;;;10.43;;
10347;SDS011;5220;43.192;23.284;2024-03-08T09:32:25;12.45;;;10.10;;
10347;SDS011;5220;43.192;23.284;2024-03-08T09:34:52;14.60;;;11.65;;
10347;SDS011;5220;43.192;23.284;2024-03-08T09:37:19;14.07;;;11.67;;
10347;SDS011;5220;43.192;23.284;2024-03-08T09:39:45;12.55;;;8.95;;
10347;SDS011;5220;43.192;23.284;2024-03-08T09:42:13;11.82;;;9.25;;
10347;SDS011;5220;43.192;23.284;2024-03-08T09:44:43;13.25;;;9.20;;
10347;SDS011;5220;43.192;23.284;2024-03-08T09:47:13;12.82;;;8.68;;
10347;SDS011;5220;43.192;23.284;2024-03-08T09:49:40;12.75;;;10.27;;
10347;SDS011;5220;43.192;23.284;2024-03-08T09:52:08;22.17;;;14.65;;
10347;SDS011;5220;43.192;23.284;2024-03-08T09:54:35;14.13;;;10.77;;
10347;SDS011;5220;43.192;23.284;2024-03-08T09:57:03;15.00;;;11.20;;
10347;SDS011;5220;43.192;23.284;2024-03-08T09:59:30;15.30;;;11.23;;
10347;SDS011;5220;43.192;23.284;2024-03-08T10:02:12;16.88;;;12.40;;
10347;SDS011;5220;43.192;23.284;2024-03-08T10:04:42;15.70;;;11.77;;
10347;SDS011;5220;43.192;23.284;2024-03-08T10:07:11;13.35;;;10.07;;
10347;SDS011;5220;43.192;23.284;2024-03-08T10:09:38;16.40;;;13.82;;
10347;SDS011;5220;43.192;23.284;2024-03-08T10:12:08;20.85;;;15.25;;
10347;SDS011;5220;43.192;23.284;2024-03-08T10:14:38;15.23;;;11.00;;
10347;SDS011;5220;43.192;23.284;2024-03-08T10:17:07;13.85;;;10.70;;
10347;SDS011;5220;43.192;23.284;2024-03-08T10:19:35;16.20;;;11.57;;
10347;SDS011;5220;43.192;23.284;2024-03-08T10:22:02;21.90;;;16.05;;
10347;SDS011;5220;43.192;23.284;2024-03-08T10:24:29;13.65;;;10.40;;
10347;SDS011;5220;43.192;23.284;2024-03-08T10:26:58;17.30;;;12.07;;
10347;SDS011;5220;43.192;23.284;2024-03-08T10:29:26;19.13;;;13.45;;
10347;SDS011;5220;43.192;23.284;2024-03-08T10:31:53;18.00;;;12.10;;
10347;SDS011;5220;43.192;23.284;2024-03-08T10:34:22;13.65;;;10.20;;
10347;SDS011;5220;43.192;23.284;2024-03-08T10:36:51;14.30;;;11.43;;
10347;SDS011;5220;43.192;23.284;2024-03-08T10:39:20;13.75;;;9.88;;
10347;SDS011;5220;43.192;23.284;2024-03-08T10:41:50;14.98;;;10.27;;
10347;SDS011;5220;43.192;23.284;2024-03-08T10:44:24;11.05;;;9.20;;
10347;SDS011;5220;43.192;23.284;2024-03-08T10:47:00;13.38;;;9.70;;
10347;SDS011;5220;43.192;23.284;2024-03-08T10:49:31;13.05;;;10.32;;
10347;SDS011;5220;43.192;23.284;2024-03-08T10:52:02;13.07;;;10.68;;
10347;SDS011;5220;43.192;23.284;2024-03-08T10:54:30;15.15;;;10.45;;
10347;SDS011;5220;43.192;23.284;2024-03-08T10:56:59;14.20;;;11.00;;
10347;SDS011;5220;43.192;23.284;2024-03-08T10:59:27;13.70;;;10.60;;
10347;SDS011;5220;43.192;23.284;2024-03-08T11:01:57;14.73;;;11.45;;
10347;SDS011;5220;43.192;23.284;2024-03-08T11:04:23;14.18;;;10.95;;
10347;SDS011;5220;43.192;23.284;2024-03-08T11:06:50;18.95;;;12.82;;
10347;SDS011;5220;43.192;23.284;2024-03-08T11:09:29;17.67;;;11.80;;
10347;SDS011;5220;43.192;23.284;2024-03-08T11:14:46;14.48;;;11.40;;
10347;SDS011;5220;43.192;23.284;2024-03-08T11:17:15;13.80;;;10.82;;
10347;SDS011;5220;43.192;23.284;2024-03-08T11:19:46;12.98;;;9.45;;
10347;SDS011;5220;43.192;23.284;2024-03-08T11:22:20;15.90;;;11.63;;
10347;SDS011;5220;43.192;23.284;2024-03-08T11:24:51;12.90;;;10.07;;
10347;SDS011;5220;43.192;23.284;2024-03-08T11:27:17;17.88;;;13.45;;
10347;SDS011;5220;43.192;23.284;2024-03-08T11:29:46;12.35;;;10.48;;
10347;SDS011;5220;43.192;23.284;2024-03-08T11:32:33;14.18;;;11.68;;
10347;SDS011;5220;43.192;23.284;2024-03-08T11:35:02;15.63;;;11.32;;
10347;SDS011;5220;43.192;23.284;2024-03-08T11:37:33;14.15;;;11.43;;
10347;SDS011;5220;43.192;23.284;2024-03-08T11:40:02;15.13;;;10.38;;
10347;SDS011;5220;43.192;23.284;2024-03-08T11:42:39;16.50;;;12.95;;
10347;SDS011;5220;43.192;23.284;2024-03-08T11:45:08;12.05;;;9.43;;
10347;SDS011;5220;43.192;23.284;2024-03-08T11:47:36;15.75;;;11.30;;
10347;SDS011;5220;43.192;23.284;2024-03-08T11:50:05;12.73;;;9.23;;
10347;SDS011;5220;43.192;23.284;2024-03-08T11:52:35;15.00;;;11.50;;
10347;SDS011;5220;43.192;23.284;2024-03-08T11:55:04;14.02;;;11.55;;
10347;SDS011;5220;43.192;23.284;2024-03-08T11:57:32;14.77;;;10.43;;
10347;SDS011;5220;43.192;23.284;2024-03-08T11:59:59;10.82;;;8.40;;
10347;SDS011;5220;43.192;23.284;2024-03-08T12:02:31;10.85;;;8.63;;
10347;SDS011;5220;43.192;23.284;2024-03-08T12:05:00;12.77;;;9.00;;
10347;SDS011;5220;43.192;23.284;2024-03-08T12:07:28;13.13;;;11.07;;
10347;SDS011;5220;43.192;23.284;2024-03-08T12:10:17;10.40;;;8.80;;
10347;SDS011;5220;43.192;23.284;2024-03-08T12:12:46;10.02;;;8.07;;
10347;SDS011;5220;43.192;23.284;2024-03-08T12:15:16;11.40;;;8.20;;
10347;SDS011;5220;43.192;23.284;2024-03-08T12:17:44;9.82;;;7.60;;
10347;SDS011;5220;43.192;23.284;2024-03-08T12:20:14;9.70;;;8.52;;
10347;SDS011;5220;43.192;23.284;2024-03-08T12:22:42;12.63;;;10.10;;
10347;SDS011;5220;43.192;23.284;2024-03-08T12:25:09;13.55;;;10.25;;
10347;SDS011;5220;43.192;23.284;2024-03-08T12:27:38;15.68;;;11.70;;
10347;SDS011;5220;43.192;23.284;2024-03-08T12:30:18;15.35;;;12.02;;
10347;SDS011;5220;43.192;23.284;2024-03-08T12:32:53;14.52;;;12.05;;
10347;SDS011;5220;43.192;23.284;2024-03-08T12:35:23;16.17;;;11.73;;
10347;SDS011;5220;43.192;23.284;2024-03-08T12:37:51;25.00;;;16.80;;
10347;SDS011;5220;43.192;23.284;2024-03-08T12:40:19;20.60;;;15.20;;
10347;SDS011;5220;43.192;23.284;2024-03-08T12:42:54;21.23;;;14.10;;
10347;SDS011;5220;43.192;23.284;2024-03-08T12:45:21;19.88;;;12.90;;
10347;SDS011;5220;43.192;23.284;2024-03-08T12:47:49;19.75;;;13.88;;
10347;SDS011;5220;43.192;23.284;2024-03-08T12:50:16;23.45;;;18.17;;
10347;SDS011;5220;43.192;23.284;2024-03-08T12:52:43;31.88;;;19.85;;
10347;SDS011;5220;43.192;23.284;2024-03-08T12:55:10;28.02;;;18.77;;
10347;SDS011;5220;43.192;23.284;2024-03-08T12:57:37;24.75;;;16.13;;
10347;SDS011;5220;43.192;23.284;2024-03-08T13:00:06;20.95;;;15.10;;
10347;SDS011;5220;43.192;23.284;2024-03-08T13:02:38;19.40;;;15.40;;
10347;SDS011;5220;43.192;23.284;2024-03-08T13:05:05;26.73;;;17.75;;
10347;SDS011;5220;43.192;23.284;2024-03-08T13:07:34;23.80;;;16.65;;
10347;SDS011;5220;43.192;23.284;2024-03-08T13:10:02;26.03;;;18.87;;
10347;SDS011;5220;43.192;23.284;2024-03-08T13:12:30;26.52;;;18.02;;
10347;SDS011;5220;43.192;23.284;2024-03-08T13:14:56;44.35;;;36.03;;
10347;SDS011;5220;43.192;23.284;2024-03-08T13:17:24;18.00;;;12.07;;
10347;SDS011;5220;43.192;23.284;2024-03-08T13:19:51;17.58;;;12.02;;
10347;SDS011;5220;43.192;23.284;2024-03-08T13:22:22;20.98;;;13.38;;
10347;SDS011;5220;43.192;23.284;2024-03-08T13:24:50;21.67;;;15.52;;
10347;SDS011;5220;43.192;23.284;2024-03-08T13:27:17;17.05;;;13.75;;
10347;SDS011;5220;43.192;23.284;2024-03-08T13:29:48;19.80;;;14.85;;
10347;SDS011;5220;43.192;23.284;2024-03-08T13:32:15;17.50;;;13.35;;
10347;SDS011;5220;43.192;23.284;2024-03-08T13:34:46;15.93;;;12.40;;
10347;SDS011;5220;43.192;23.284;2024-03-08T13:37:16;18.05;;;13.43;;
10347;SDS011;5220;43.192;23.284;2024-03-08T13:39:42;13.68;;;11.15;;
10347;SDS011;5220;43.192;23.284;2024-03-08T13:42:10;17.88;;;12.60;;
10347;SDS011;5220;43.192;23.284;2024-03-08T13:44:38;18.38;;;13.27;;
10347;SDS011;5220;43.192;23.284;2024-03-08T13:47:09;12.13;;;10.43;;
10347;SDS011;5220;43.192;23.284;2024-03-08T13:49:37;17.67;;;12.52;;
10347;SDS011;5220;43.192;23.284;2024-03-08T13:52:05;14.73;;;11.43;;
10347;SDS011;5220;43.192;23.284;2024-03-08T13:54:33;15.20;;;12.13;;
10347;SDS011;5220;43.192;23.284;2024-03-08T13:57:00;24.60;;;18.60;;
10347;SDS011;5220;43.192;23.284;2024-03-08T13:59:28;21.58;;;15.80;;
10347;SDS011;5220;43.192;23.284;2024-03-08T14:01:55;20.58;;;16.05;;
10347;SDS011;5220;43.192;23.284;2024-03-08T14:04:24;25.60;;;16.35;;
10347;SDS011;5220;43.192;23.284;2024-03-08T14:06:52;30.83;;;19.23;;
10347;SDS011;5220;43.192;23.284;2024-03-08T14:09:23;29.38;;;19.15;;
10347;SDS011;5220;43.192;23.284;2024-03-08T14:11:50;32.63;;;23.75;;
10347;SDS011;5220;43.192;23.284;2024-03-08T14:14:20;34.13;;;24.33;;
10347;SDS011;5220;43.192;23.284;2024-03-08T14:16:48;27.83;;;20.02;;
10347;SDS011;5220;43.192;23.284;2024-03-08T14:19:17;33.15;;;21.10;;
10347;SDS011;5220;43.192;23.284;2024-03-08T14:21:47;30.50;;;20.73;;
10347;SDS011;5220;43.192;23.284;2024-03-08T14:24:14;31.93;;;21.40;;
10347;SDS011;5220;43.192;23.284;2024-03-08T14:26:42;35.93;;;24.87;;
10347;SDS011;5220;43.192;23.284;2024-03-08T14:29:09;37.87;;;23.57;;
10347;SDS011;5220;43.192;23.284;2024-03-08T14:31:36;41.70;;;27.52;;